Time;durP1;ratioP1;P1;durP2;ratioP2;P2;SDS_P1;SDS_P2;PMS_P1;PMS_P2;Temp;Humidity;BMP_temperature;BMP_pressure;BME280_temperature;BME280_humidity;BME280_pressure;Samples;Min_cycle;Max_cycle;Signal;HPM_P1;HPM_P2
2023/06/22 00:01:28;;;;;;;8.73;7.93;;;;;;;18.44;81.16;102008.88;4981126;28;20034;-78
2023/06/22 00:03:54;;;;;;;8.68;7.80;;;;;;;18.40;81.28;102001.09;4999016;28;20038;-78
2023/06/22 00:06:19;;;;;;;8.57;7.88;;;;;;;18.37;81.32;101998.63;4998187;28;20073;-78
2023/06/22 00:08:45;;;;;;;8.65;7.85;;;;;;;18.35;81.39;102000.47;4981314;28;20373;-78
2023/06/22 00:11:10;;;;;;;10.57;9.00;;;;;;;18.33;81.42;101993.56;4997798;28;20265;-78
2023/06/22 00:13:36;;;;;;;10.93;8.63;;;;;;;18.30;81.60;101991.94;4998563;28;20066;-78
2023/06/22 00:16:01;;;;;;;9.55;8.50;;;;;;;18.30;81.75;101988.41;4998704;28;20030;-78
2023/06/22 00:18:27;;;;;;;9.23;8.30;;;;;;;18.26;81.72;101990.38;4998581;28;20383;-78
2023/06/22 00:20:57;;;;;;;8.57;7.78;;;;;;;18.24;82.04;101992.28;4980621;28;20328;-78
2023/06/22 00:23:23;;;;;;;9.77;8.77;;;;;;;18.21;81.99;101984.50;4998684;28;20030;-78
2023/06/22 00:25:49;;;;;;;10.13;8.52;;;;;;;18.19;82.06;101989.00;4998370;28;20038;-78
2023/06/22 00:28:15;;;;;;;9.88;8.60;;;;;;;18.17;82.10;101989.13;4980895;28;20419;-78
2023/06/22 00:30:40;;;;;;;10.25;9.00;;;;;;;18.16;82.22;101986.53;4998899;28;20300;-78
2023/06/22 00:33:07;;;;;;;9.77;8.77;;;;;;;18.12;82.44;101975.25;5001913;28;20042;-78
2023/06/22 00:35:33;;;;;;;10.15;9.15;;;;;;;18.12;82.56;101977.03;5002306;28;20076;-78
2023/06/22 00:38:04;;;;;;;10.82;9.18;;;;;;;18.10;82.56;101974.47;4988434;28;20029;-78
2023/06/22 00:40:31;;;;;;;9.52;8.57;;;;;;;18.07;82.68;101971.16;5021490;28;20034;-78
2023/06/22 00:42:57;;;;;;;9.93;8.93;;;;;;;18.05;82.69;101971.22;5021046;28;20040;-78
2023/06/22 00:45:23;;;;;;;9.85;8.65;;;;;;;18.02;82.77;101971.38;5021906;28;20034;-78
2023/06/22 00:47:51;;;;;;;8.93;8.13;;;;;;;18.01;82.76;101967.03;5020700;28;20032;-78
2023/06/22 00:50:20;;;;;;;9.85;8.80;;;;;;;18.00;82.92;101965.31;5021424;28;20057;-78
2023/06/22 00:52:58;;;;;;;9.55;8.57;;;;;;;17.99;82.97;101960.94;5002999;28;20030;-78
2023/06/22 00:55:25;;;;;;;10.57;8.63;;;;;;;17.98;82.95;101964.53;5020469;28;20041;-78
2023/06/22 00:57:55;;;;;;;11.63;8.98;;;;;;;17.96;83.05;101956.66;5020783;28;20039;-78
2023/06/22 01:00:24;;;;;;;9.80;8.68;;;;;;;17.95;83.24;101964.69;5021032;28;20336;-78
2023/06/22 01:05:24;;;;;;;10.00;9.00;;;;;;;17.91;83.34;101957.84;5080063;23;20082;-82
2023/06/22 01:08:05;;;;;;;12.15;9.70;;;;;;;17.89;83.43;101954.44;5001565;28;20029;-81
2023/06/22 01:10:36;;;;;;;9.95;8.95;;;;;;;17.86;83.64;101952.78;5017380;28;20346;-81
2023/06/22 01:13:14;;;;;;;11.07;9.77;;;;;;;17.86;83.48;101954.59;4999782;28;20358;-81
2023/06/22 01:15:49;;;;;;;10.68;9.52;;;;;;;17.84;83.72;101952.88;5017790;28;20075;-81
2023/06/22 01:18:19;;;;;;;10.88;9.77;;;;;;;17.83;83.64;101961.75;5018114;28;20223;-82
2023/06/22 01:20:45;;;;;;;11.70;9.48;;;;;;;17.82;83.67;101948.56;5017907;28;20361;-81
2023/06/22 01:23:37;;;;;;;10.60;9.27;;;;;;;17.79;83.95;101951.38;5017944;28;20568;-81
2023/06/22 01:26:13;;;;;;;11.27;9.63;;;;;;;17.77;84.03;101951.47;5017437;28;20118;-81
2023/06/22 01:28:46;;;;;;;12.25;9.80;;;;;;;17.77;83.99;101950.59;5017620;28;20204;-82
2023/06/22 01:31:15;;;;;;;11.68;10.10;;;;;;;17.78;83.74;101949.69;5017886;28;20103;-82
2023/06/22 01:33:43;;;;;;;11.05;9.80;;;;;;;17.77;83.98;101948.84;5024687;28;20033;-82
2023/06/22 01:36:10;;;;;;;11.25;9.90;;;;;;;17.76;84.06;101940.97;5019165;28;20132;-81
2023/06/22 01:38:37;;;;;;;10.40;9.30;;;;;;;17.74;84.23;101941.03;5036755;28;20386;-82
2023/06/22 01:41:03;;;;;;;11.52;9.93;;;;;;;17.72;84.11;101947.34;5036741;28;20104;-81
2023/06/22 01:43:30;;;;;;;12.07;9.98;;;;;;;17.71;84.13;101961.53;5019222;28;20030;-81
2023/06/22 01:45:57;;;;;;;14.13;10.68;;;;;;;17.69;84.25;101961.63;5036973;28;20029;-81
2023/06/22 01:48:23;;;;;;;11.45;10.25;;;;;;;17.68;84.47;101954.59;5037439;28;20096;-81
2023/06/22 01:50:49;;;;;;;13.05;11.27;;;;;;;17.68;84.47;101959.03;5036515;28;20056;-81
2023/06/22 01:53:15;;;;;;;15.63;11.88;;;;;;;17.68;84.51;101946.66;5019080;28;20056;-81
2023/06/22 01:55:40;;;;;;;12.63;10.90;;;;;;;17.69;84.37;101950.19;5036506;28;20033;-81
2023/06/22 01:58:06;;;;;;;15.02;11.68;;;;;;;17.70;84.48;101947.44;5036557;28;20367;-81
2023/06/22 02:00:38;;;;;;;13.80;11.35;;;;;;;17.68;84.56;101957.25;5036620;28;20047;-81
2023/06/22 02:03:23;;;;;;;15.75;11.40;;;;;;;17.67;84.68;101947.59;5011792;28;20329;-81
2023/06/22 02:06:10;;;;;;;13.68;11.45;;;;;;;17.65;84.87;101947.69;5016299;28;20057;-81
2023/06/22 02:08:42;;;;;;;15.10;10.95;;;;;;;17.63;84.63;101946.91;5016275;28;20025;-82
2023/06/22 02:11:10;;;;;;;12.27;10.45;;;;;;;17.63;84.88;101954.00;4998955;28;20084;-82
2023/06/22 02:13:37;;;;;;;14.15;11.50;;;;;;;17.60;84.90;101946.22;5016452;28;20029;-81
2023/06/22 02:16:03;;;;;;;13.52;11.52;;;;;;;17.57;85.06;101943.72;5016774;28;20037;-82
2023/06/22 02:18:29;;;;;;;13.52;11.05;;;;;;;17.55;85.08;101941.13;4998552;28;20030;-81
2023/06/22 02:20:54;;;;;;;12.95;11.38;;;;;;;17.55;85.21;101932.34;5016389;28;20315;-81
2023/06/22 02:23:19;;;;;;;15.05;11.38;;;;;;;17.53;84.99;101931.56;5016645;28;20033;-81
2023/06/22 02:25:45;;;;;;;14.20;12.05;;;;;;;17.52;85.27;101936.03;5016230;28;20041;-83
2023/06/22 02:28:10;;;;;;;15.82;12.13;;;;;;;17.50;85.25;101935.25;5016030;28;20359;-83
2023/06/22 02:30:35;;;;;;;16.23;12.18;;;;;;;17.47;85.39;101927.47;5016116;28;20041;-83
2023/06/22 02:33:01;;;;;;;14.95;12.20;;;;;;;17.45;85.09;101926.69;5015924;28;20086;-83
2023/06/22 02:35:31;;;;;;;13.32;11.27;;;;;;;17.44;85.16;101936.44;5015990;28;20034;-83
2023/06/22 02:38:01;;;;;;;13.85;11.35;;;;;;;17.42;85.33;101927.69;4998189;28;20209;-83
2023/06/22 02:40:29;;;;;;;15.60;11.55;;;;;;;17.41;85.35;101927.78;5015776;28;20312;-83
2023/06/22 02:42:54;;;;;;;16.05;11.65;;;;;;;17.41;85.40;101927.78;4998257;28;20050;-83
2023/06/22 02:45:19;;;;;;;14.90;12.27;;;;;;;17.39;85.21;101925.22;5015748;28;20337;-83
2023/06/22 02:47:45;;;;;;;16.45;12.27;;;;;;;17.39;85.49;101924.34;5015871;28;20115;-83
2023/06/22 02:50:11;;;;;;;16.63;12.43;;;;;;;17.37;85.54;101924.44;5015452;28;20037;-83
2023/06/22 02:52:36;;;;;;;15.73;11.50;;;;;;;17.36;85.58;101924.53;5015731;28;20026;-83
2023/06/22 02:55:02;;;;;;;15.77;12.20;;;;;;;17.34;85.49;101924.59;5014524;28;20061;-83
2023/06/22 02:57:27;;;;;;;14.68;11.88;;;;;;;17.33;85.78;101927.31;4998253;28;20189;-83
2023/06/22 02:59:52;;;;;;;14.70;11.50;;;;;;;17.31;85.84;101930.03;5015501;28;20049;-83
2023/06/22 03:02:20;;;;;;;14.63;12.00;;;;;;;17.30;85.49;101933.66;5015879;28;20021;-83
2023/06/22 03:04:49;;;;;;;15.95;12.50;;;;;;;17.30;85.81;101935.41;5008363;28;20116;-83
2023/06/22 03:07:15;;;;;;;13.18;11.77;;;;;;;17.28;85.70;101943.44;4996126;28;20320;-83
2023/06/22 03:09:41;;;;;;;13.30;11.75;;;;;;;17.27;85.88;101947.03;5002907;28;20033;-83
2023/06/22 03:12:07;;;;;;;17.25;12.75;;;;;;;17.26;85.91;101945.31;5015004;28;20034;-83
2023/06/22 03:14:33;;;;;;;14.25;12.30;;;;;;;17.24;86.35;101940.09;5015256;28;20044;-83
2023/06/22 03:17:02;;;;;;;18.08;13.70;;;;;;;17.23;86.02;101922.50;5015044;28;20018;-83
2023/06/22 03:19:29;;;;;;;26.67;17.13;;;;;;;17.25;86.20;101922.44;4997476;28;20216;-83
2023/06/22 03:21:55;;;;;;;18.63;13.98;;;;;;;17.29;86.11;101912.53;4997366;28;20034;-83
2023/06/22 03:24:20;;;;;;;16.65;13.45;;;;;;;17.29;86.25;101912.53;5015137;28;20350;-83
2023/06/22 03:26:46;;;;;;;19.50;14.80;;;;;;;17.28;86.40;101911.66;4997537;28;20041;-83
2023/06/22 03:29:12;;;;;;;26.17;18.23;;;;;;;17.30;86.57;101920.41;5015276;28;20045;-83
2023/06/22 03:31:37;;;;;;;33.80;23.42;;;;;;;17.32;87.18;101915.88;5015288;28;20030;-83
2023/06/22 03:34:03;;;;;;;22.17;17.52;;;;;;;17.31;87.47;101911.50;5003724;28;20057;-83
2023/06/22 03:36:28;;;;;;;21.73;15.95;;;;;;;17.31;87.23;101911.50;4995874;28;20044;-83
2023/06/22 03:38:54;;;;;;;19.83;15.00;;;;;;;17.30;87.13;101903.66;4977981;28;20129;-83
2023/06/22 03:41:20;;;;;;;23.23;16.70;;;;;;;17.29;87.16;101897.50;4995532;28;20118;-83
2023/06/22 03:43:45;;;;;;;23.40;18.05;;;;;;;17.30;87.10;101901.88;4995544;28;20044;-83
2023/06/22 03:46:10;;;;;;;35.75;24.02;;;;;;;17.32;87.76;101900.00;4995364;28;20046;-83
2023/06/22 03:48:36;;;;;;;30.38;20.33;;;;;;;17.32;87.98;101893.81;4995857;28;20064;-83
2023/06/22 03:51:02;;;;;;;32.47;22.77;;;;;;;17.33;88.28;101891.09;4995124;28;20061;-83
2023/06/22 03:53:28;;;;;;;30.75;21.55;;;;;;;17.33;88.25;101890.25;4995617;28;20038;-83
2023/06/22 03:55:54;;;;;;;31.50;20.23;;;;;;;17.34;88.35;101892.84;5009966;28;20030;-83
2023/06/22 03:58:20;;;;;;;26.50;19.15;;;;;;;17.34;88.58;101891.97;5015267;28;20033;-83
2023/06/22 04:00:47;;;;;;;21.45;16.48;;;;;;;17.35;88.75;101891.88;5014648;28;20097;-83
2023/06/22 04:03:14;;;;;;;29.10;19.70;;;;;;;17.34;88.95;101887.53;5015078;28;20040;-83
2023/06/22 04:05:39;;;;;;;23.27;18.80;;;;;;;17.36;89.01;101890.97;5014957;28;20050;-83
2023/06/22 04:08:05;;;;;;;35.53;23.73;;;;;;;17.35;89.14;101893.69;5001033;28;20036;-83
2023/06/22 04:10:31;;;;;;;21.83;16.40;;;;;;;17.34;89.24;101898.13;5004219;28;20328;-83
2023/06/22 04:12:57;;;;;;;23.58;17.50;;;;;;;17.34;89.18;101895.47;4999069;28;20034;-83
2023/06/22 04:15:22;;;;;;;22.90;16.08;;;;;;;17.36;89.21;101884.81;4991421;28;20034;-83
2023/06/22 04:17:47;;;;;;;23.30;17.52;;;;;;;17.37;88.97;101886.50;5000799;28;20136;-83
2023/06/22 04:20:13;;;;;;;25.33;18.52;;;;;;;17.36;88.87;101885.66;5018877;28;20125;-83
2023/06/22 04:22:38;;;;;;;31.30;21.45;;;;;;;17.39;88.98;101888.16;5018574;28;20039;-83
2023/06/22 04:25:07;;;;;;;25.38;17.92;;;;;;;17.39;89.27;101892.56;5018152;28;20097;-83
2023/06/22 04:27:33;;;;;;;;;;;;;;;17.40;89.36;101889.84;5019381;28;20038;-83
2023/06/22 04:30:00;;;;;;;20.50;15.07;;;;;;;17.41;89.09;101893.38;5018082;28;20210;-83
2023/06/22 04:32:25;;;;;;;25.45;18.58;;;;;;;17.39;89.11;101904.03;5019059;28;20105;-83
2023/06/22 04:34:52;;;;;;;23.13;17.60;;;;;;;17.41;89.26;101903.97;5017895;28;20061;-84
2023/06/22 04:37:17;;;;;;;22.48;18.10;;;;;;;17.41;89.44;101902.16;5000817;28;20037;-83
2023/06/22 04:39:43;;;;;;;28.55;19.92;;;;;;;17.42;89.46;101903.84;5018116;28;20092;-83
2023/06/22 04:42:08;;;;;;;21.58;16.60;;;;;;;17.42;89.75;101901.22;5017853;28;20045;-83
2023/06/22 04:44:33;;;;;;;20.00;15.18;;;;;;;17.44;89.58;101906.44;5018134;28;20340;-83
2023/06/22 04:47:03;;;;;;;18.45;14.32;;;;;;;17.43;89.51;101905.59;5000121;28;20045;-83
2023/06/22 04:49:32;;;;;;;19.58;15.48;;;;;;;17.44;89.50;101895.84;5000090;28;20339;-83
2023/06/22 04:52:09;;;;;;;24.65;18.90;;;;;;;17.48;89.61;101899.19;4999944;28;20217;-83
2023/06/22 04:54:36;;;;;;;33.47;21.98;;;;;;;17.51;89.99;101909.63;5017613;28;20038;-83
2023/06/22 04:57:04;;;;;;;46.30;25.00;;;;;;;17.51;91.17;101909.63;5017654;28;20659;-83
2023/06/22 04:59:30;;;;;;;33.63;22.20;;;;;;;17.51;92.11;101905.16;5000143;28;20033;-83
2023/06/22 05:01:56;;;;;;;35.90;24.48;;;;;;;17.51;92.76;101901.69;5017711;28;20026;-83
2023/06/22 05:04:23;;;;;;;31.25;22.52;;;;;;;17.52;93.12;101903.38;5018097;28;20096;-83
2023/06/22 05:06:48;;;;;;;30.40;20.90;;;;;;;17.53;92.99;101905.09;5017588;28;20038;-83
2023/06/22 05:09:14;;;;;;;30.45;20.63;;;;;;;17.54;92.77;101907.66;5005792;28;20411;-83
2023/06/22 05:11:40;;;;;;;29.75;21.33;;;;;;;17.57;92.67;101914.59;5005212;28;20042;-84
2023/06/22 05:14:05;;;;;;;37.10;23.75;;;;;;;17.57;93.59;101904.88;5004809;28;20329;-83
2023/06/22 05:16:31;;;;;;;31.40;21.10;;;;;;;17.59;93.98;101903.00;4995541;28;20036;-83
2023/06/22 05:18:56;;;;;;;32.70;21.48;;;;;;;17.60;93.68;101906.47;5013218;28;20458;-83
2023/06/22 05:21:24;;;;;;;34.47;22.35;;;;;;;17.63;94.39;101903.69;5005137;28;20248;-83
2023/06/22 05:23:50;;;;;;;29.38;20.55;;;;;;;17.62;94.61;101900.16;4978367;28;20042;-83
2023/06/22 05:26:15;;;;;;;31.25;20.70;;;;;;;17.65;94.58;101896.50;4988139;28;20106;-83
2023/06/22 05:28:41;;;;;;;32.40;21.02;;;;;;;17.65;95.08;101894.69;4980454;28;20033;-83
2023/06/22 05:31:06;;;;;;;26.05;19.20;;;;;;;17.68;95.13;101898.13;4990961;28;20068;-83
2023/06/22 05:33:32;;;;;;;31.17;19.55;;;;;;;17.69;94.83;101890.09;4987969;28;20191;-83
2023/06/22 05:35:57;;;;;;;24.80;18.67;;;;;;;17.73;94.68;101901.38;4997760;28;20042;-83
2023/06/22 05:38:22;;;;;;;27.67;18.75;;;;;;;17.76;94.46;101898.56;4998016;28;20288;-84
2023/06/22 05:40:48;;;;;;;33.90;20.20;;;;;;;17.78;94.93;101900.19;4979277;28;20329;-84
2023/06/22 05:43:13;;;;;;;32.03;20.95;;;;;;;17.80;94.72;101898.31;4980179;28;20038;-83
2023/06/22 05:45:38;;;;;;;28.02;19.85;;;;;;;17.82;94.53;101903.53;4972753;28;20363;-83
2023/06/22 05:48:04;;;;;;;29.15;19.38;;;;;;;17.82;94.76;101904.38;4988923;28;20038;-83
2023/06/22 05:50:30;;;;;;;28.52;19.40;;;;;;;17.84;94.36;101905.19;4990847;28;20248;-83
2023/06/22 05:52:55;;;;;;;25.17;18.70;;;;;;;17.86;94.17;101904.25;4987655;28;20337;-83
2023/06/22 05:55:20;;;;;;;28.02;19.75;;;;;;;17.87;94.18;101908.63;4988203;28;20034;-83
2023/06/22 05:57:46;;;;;;;32.42;19.60;;;;;;;17.87;94.76;101904.16;4987498;28;20038;-83
2023/06/22 06:00:12;;;;;;;30.27;19.90;;;;;;;17.88;94.64;101903.22;4988287;28;20454;-83
2023/06/22 06:02:43;;;;;;;26.63;19.25;;;;;;;17.90;94.85;101901.38;4988855;28;20043;-83
2023/06/22 06:05:09;;;;;;;20.98;16.70;;;;;;;17.92;94.51;101902.13;4974536;28;20042;-83
2023/06/22 06:07:35;;;;;;;28.85;19.70;;;;;;;17.93;94.43;101908.28;4971038;28;20326;-83
2023/06/22 06:10:00;;;;;;;27.88;19.85;;;;;;;17.94;94.44;101907.34;4968757;28;20022;-83
2023/06/22 06:12:26;;;;;;;35.65;20.77;;;;;;;17.96;94.67;101906.31;4987519;28;20100;-83
2023/06/22 06:14:53;;;;;;;29.50;19.50;;;;;;;17.97;95.08;101900.09;4985109;28;20340;-83
2023/06/22 06:17:18;;;;;;;28.65;18.40;;;;;;;17.99;95.00;101898.22;4968635;28;20341;-83
2023/06/22 06:19:44;;;;;;;29.55;20.63;;;;;;;18.01;95.04;101893.66;4987064;28;20037;-83
2023/06/22 06:22:09;;;;;;;26.10;18.15;;;;;;;18.03;95.20;101897.09;4992922;28;20065;-83
2023/06/22 06:24:34;;;;;;;29.50;19.83;;;;;;;18.06;95.39;101903.16;4985402;28;20043;-83
2023/06/22 06:27:00;;;;;;;26.13;18.80;;;;;;;18.08;95.25;101899.50;4986831;28;20084;-83
2023/06/22 06:29:25;;;;;;;27.88;17.27;;;;;;;18.10;94.92;101896.72;4983791;28;20077;-83
2023/06/22 06:31:50;;;;;;;26.00;18.55;;;;;;;18.12;95.31;101892.19;4986958;28;20070;-83
2023/06/22 06:34:16;;;;;;;23.88;18.73;;;;;;;18.14;95.01;101891.19;4972000;28;20335;-83
2023/06/22 06:36:41;;;;;;;29.02;19.77;;;;;;;18.15;95.14;101886.72;4988534;28;20374;-83
2023/06/22 06:39:08;;;;;;;24.85;17.98;;;;;;;18.18;94.96;101886.56;4971857;28;20106;-83
2023/06/22 06:41:34;;;;;;;21.20;16.45;;;;;;;18.19;95.12;101890.91;4986641;28;20042;-83
2023/06/22 06:44:00;;;;;;;27.80;17.58;;;;;;;18.21;94.81;101887.25;4995048;28;20044;-83
2023/06/22 06:46:25;;;;;;;21.50;15.27;;;;;;;18.23;94.56;101890.66;4995289;28;20066;-83
2023/06/22 06:48:51;;;;;;;23.00;18.17;;;;;;;18.26;94.25;101886.97;4976979;28;20092;-83
2023/06/22 06:51:16;;;;;;;20.25;15.00;;;;;;;18.29;94.38;101885.97;4996709;28;20340;-83
2023/06/22 06:53:42;;;;;;;23.17;16.15;;;;;;;18.32;93.91;101880.47;4996357;28;20178;-83
2023/06/22 06:56:08;;;;;;;17.90;13.95;;;;;;;18.33;93.71;101879.53;4994849;28;20329;-83
2023/06/22 06:58:34;;;;;;;22.42;16.05;;;;;;;18.35;93.13;101878.50;4996188;28;20073;-83
2023/06/22 07:00:59;;;;;;;19.23;14.00;;;;;;;18.37;92.99;101870.47;4978307;28;20030;-83
2023/06/22 07:03:25;;;;;;;18.67;14.95;;;;;;;18.39;92.88;101865.91;5001148;28;20033;-83
2023/06/22 07:05:50;;;;;;;19.65;15.32;;;;;;;18.45;92.58;101872.69;5014739;28;20061;-83
2023/06/22 07:08:15;;;;;;;19.00;14.80;;;;;;;18.49;92.58;101876.88;5016125;28;20037;-83
2023/06/22 07:10:41;;;;;;;22.02;14.65;;;;;;;18.51;92.41;101881.13;5015345;28;20104;-83
2023/06/22 07:13:06;;;;;;;18.45;14.20;;;;;;;18.57;92.26;101872.84;4997413;28;20103;-83
2023/06/22 07:15:31;;;;;;;18.92;12.63;;;;;;;18.61;92.28;101862.91;5014182;28;20049;-83
2023/06/22 07:17:57;;;;;;;15.88;11.85;;;;;;;18.64;91.32;101862.72;5014430;28;20037;-83
2023/06/22 07:20:22;;;;;;;19.50;11.93;;;;;;;18.68;90.76;101858.06;5015547;28;20041;-83
2023/06/22 07:22:48;;;;;;;11.50;10.32;;;;;;;18.72;89.32;101857.81;4996868;28;20026;-83
2023/06/22 07:25:17;;;;;;;13.85;10.10;;;;;;;18.77;88.11;101857.53;4997753;28;20076;-83
2023/06/22 07:27:56;;;;;;;12.60;10.52;;;;;;;18.82;87.38;101852.84;4997114;28;20034;-83
2023/06/22 07:30:21;;;;;;;13.07;8.13;;;;;;;18.88;86.87;101854.28;4980887;28;20249;-83
2023/06/22 07:32:47;;;;;;;9.57;8.13;;;;;;;18.89;85.73;101854.19;4973019;28;20034;-83
2023/06/22 07:35:12;;;;;;;9.02;8.13;;;;;;;18.95;84.62;101850.31;5014012;28;20057;-83
2023/06/22 07:37:38;;;;;;;11.32;8.00;;;;;;;19.00;84.54;101848.25;5013535;28;20076;-83
2023/06/22 07:40:06;;;;;;;9.82;6.47;;;;;;;19.05;83.67;101847.97;4985165;28;20143;-83
2023/06/22 07:42:32;;;;;;;8.07;7.07;;;;;;;19.10;82.28;101835.25;4995415;28;20205;-83
2023/06/22 07:44:58;;;;;;;7.97;6.18;;;;;;;19.14;81.08;101834.13;4978012;28;20025;-84
2023/06/22 07:47:28;;;;;;;11.50;7.65;;;;;;;19.17;81.53;101831.28;4978662;28;20069;-83
2023/06/22 07:50:01;;;;;;;8.02;6.63;;;;;;;19.21;81.99;101832.81;4990899;28;20035;-83
2023/06/22 07:52:26;;;;;;;9.05;6.60;;;;;;;19.26;81.40;101832.50;5001097;28;20069;-83
2023/06/22 07:54:52;;;;;;;6.97;5.72;;;;;;;19.30;78.85;101829.59;4989649;28;20042;-83
2023/06/22 07:57:17;;;;;;;5.53;5.10;;;;;;;19.34;78.05;101828.44;4975353;28;20030;-83
2023/06/22 07:59:43;;;;;;;5.68;5.18;;;;;;;19.38;77.65;101829.94;4989282;28;20034;-83
2023/06/22 08:02:09;;;;;;;6.35;5.72;;;;;;;19.41;77.92;101830.72;4990539;28;20054;-84
2023/06/22 08:04:34;;;;;;;7.32;6.63;;;;;;;19.45;78.65;101829.59;4990346;28;20349;-83
2023/06/22 08:07:00;;;;;;;8.35;6.50;;;;;;;19.55;79.35;101820.06;4976882;28;20328;-84
2023/06/22 08:09:28;;;;;;;8.80;6.47;;;;;;;19.63;79.63;101817.78;5004718;28;20321;-83
2023/06/22 08:11:55;;;;;;;6.68;6.03;;;;;;;19.68;79.06;101812.16;4974810;28;20387;-83
2023/06/22 08:14:21;;;;;;;5.80;5.30;;;;;;;19.72;78.55;101817.22;5000377;28;20088;-83
2023/06/22 08:16:48;;;;;;;6.65;6.07;;;;;;;19.75;77.69;101811.75;5003075;28;20030;-84
2023/06/22 08:19:14;;;;;;;6.00;5.50;;;;;;;19.80;77.83;101816.75;4993639;28;20106;-84
2023/06/22 08:21:39;;;;;;;5.13;4.63;;;;;;;19.83;76.59;101819.22;4986226;28;20045;-83
2023/06/22 08:24:05;;;;;;;5.38;3.95;;;;;;;19.87;74.22;101815.41;4997392;28;20383;-83
2023/06/22 08:26:30;;;;;;;4.93;4.50;;;;;;;19.92;74.34;101813.31;4977731;28;20072;-83
2023/06/22 08:28:56;;;;;;;5.38;4.85;;;;;;;19.98;75.23;101809.38;4995578;28;20303;-83
2023/06/22 08:31:21;;;;;;;5.78;5.07;;;;;;;20.02;75.06;101815.34;4993791;28;20060;-83
2023/06/22 08:33:46;;;;;;;5.50;5.00;;;;;;;20.04;75.61;101808.97;4996280;28;20383;-84
2023/06/22 08:36:13;;;;;;;5.03;4.25;;;;;;;20.05;75.22;101813.34;4988586;28;20038;-83
2023/06/22 08:38:38;;;;;;;3.72;3.53;;;;;;;20.08;74.48;101809.63;4991447;28;20110;-83
2023/06/22 08:41:04;;;;;;;5.97;3.70;;;;;;;20.08;73.45;101801.66;4993252;28;20034;-83
2023/06/22 08:43:29;;;;;;;4.55;3.92;;;;;;;20.11;73.62;101802.31;4996235;28;21121;-84
2023/06/22 08:45:54;;;;;;;6.28;3.35;;;;;;;20.21;72.20;101796.38;4979277;28;20096;-83
2023/06/22 08:48:20;;;;;;;4.00;3.70;;;;;;;20.26;72.30;101803.09;4993997;28;20471;-84
2023/06/22 08:50:45;;;;;;;3.97;3.60;;;;;;;20.32;71.65;101809.84;4989296;28;20356;-84
2023/06/22 08:53:11;;;;;;;5.25;3.83;;;;;;;20.35;71.59;101809.63;4995179;28;20053;-83
2023/06/22 08:55:36;;;;;;;5.13;4.25;;;;;;;20.40;72.38;101806.66;4997770;28;20136;-83
2023/06/22 08:58:02;;;;;;;6.30;4.32;;;;;;;20.46;72.19;101796.44;4974096;28;20252;-83
2023/06/22 09:00:29;;;;;;;5.47;5.05;;;;;;;20.51;72.91;101802.31;4975910;28;20053;-84
2023/06/22 09:02:58;;;;;;;7.35;6.35;;;;;;;20.57;73.49;101803.69;5002721;28;20058;-83
2023/06/22 09:05:25;;;;;;;6.97;6.28;;;;;;;20.58;73.46;101791.25;4981913;28;20113;-83
2023/06/22 09:07:51;;;;;;;7.07;6.38;;;;;;;20.57;73.85;101793.06;4996311;28;20309;-84
2023/06/22 09:10:17;;;;;;;7.43;6.65;;;;;;;20.57;74.05;101792.22;4979804;28;20061;-83
2023/06/22 09:12:42;;;;;;;10.00;8.65;;;;;;;20.61;75.32;101789.28;4980500;28;20320;-83
2023/06/22 09:15:08;;;;;;;10.65;7.78;;;;;;;20.68;75.13;101787.91;4998705;28;20367;-84
2023/06/22 09:17:35;;;;;;;8.32;7.13;;;;;;;20.74;73.15;101786.63;4997377;28;20034;-83
2023/06/22 09:20:00;;;;;;;8.27;7.47;;;;;;;20.79;74.34;101791.63;4987406;28;20026;-83
2023/06/22 09:22:28;;;;;;;10.48;8.50;;;;;;;20.87;75.75;101784.81;4997448;28;20105;-83
2023/06/22 09:24:55;;;;;;;9.48;8.68;;;;;;;20.92;75.40;101789.84;4995909;28;20046;-83
2023/06/22 09:27:22;;;;;;;11.55;9.27;;;;;;;20.95;76.05;101775.44;4978770;28;20053;-83
2023/06/22 09:29:47;;;;;;;9.73;8.68;;;;;;;20.98;74.47;101783.22;4989284;28;20352;-84
2023/06/22 09:32:13;;;;;;;8.07;7.20;;;;;;;20.97;73.76;101785.00;4998732;28;20092;-84
2023/06/22 09:34:38;;;;;;;6.65;6.03;;;;;;;20.98;71.44;101786.72;4999518;28;20045;-83
2023/06/22 09:37:04;;;;;;;8.85;5.80;;;;;;;20.95;71.55;101781.59;5003529;28;20070;-84
2023/06/22 09:39:29;;;;;;;10.43;7.07;;;;;;;20.93;72.02;101778.22;4994835;28;20042;-83
2023/06/22 09:41:54;;;;;;;8.13;6.93;;;;;;;20.93;72.63;101772.03;4978318;28;20025;-84
2023/06/22 09:44:20;;;;;;;13.82;9.27;;;;;;;20.94;73.22;101771.94;4979068;28;20106;-84
2023/06/22 09:46:45;;;;;;;9.20;8.23;;;;;;;20.99;74.29;101774.25;4977273;28;20371;-84
2023/06/22 09:49:13;;;;;;;12.68;8.77;;;;;;;21.03;73.43;101763.31;4991521;28;20456;-84
2023/06/22 09:51:38;;;;;;;9.98;8.98;;;;;;;21.03;73.93;101762.47;4995262;28;20042;-84
2023/06/22 09:54:03;;;;;;;11.05;9.10;;;;;;;21.04;74.37;101758.81;4998059;28;20044;-84
2023/06/22 09:56:30;;;;;;;15.05;10.25;;;;;;;21.06;74.04;101762.22;4994547;28;20045;-84
2023/06/22 09:58:55;;;;;;;9.68;8.63;;;;;;;21.11;74.17;101759.25;4995690;28;20239;-84
2023/06/22 10:01:21;;;;;;;9.73;8.20;;;;;;;21.12;74.21;101761.81;4987433;28;20097;-84
2023/06/22 10:03:46;;;;;;;15.05;9.80;;;;;;;21.13;75.19;101757.31;4994207;28;20037;-84
2023/06/22 10:06:12;;;;;;;9.45;6.93;;;;;;;21.15;70.75;101766.91;4993438;28;20041;-84
2023/06/22 10:08:37;;;;;;;10.35;7.10;;;;;;;21.16;70.89;101767.78;5001105;28;20125;-84
2023/06/22 10:11:03;;;;;;;9.35;7.85;;;;;;;21.18;71.22;101773.84;4989824;28;20086;-84
2023/06/22 10:13:29;;;;;;;9.77;8.80;;;;;;;21.20;72.60;101764.75;4993817;28;20045;-83
2023/06/22 10:15:54;;;;;;;14.68;9.43;;;;;;;21.26;73.64;101779.44;4996482;28;20042;-83
2023/06/22 10:18:20;;;;;;;11.10;7.57;;;;;;;21.28;73.39;101773.06;4990762;28;20034;-83
2023/06/22 10:20:51;;;;;;;9.13;8.13;;;;;;;21.28;72.80;101778.41;4977438;28;20197;-83
2023/06/22 10:23:16;;;;;;;7.30;6.60;;;;;;;21.24;72.28;101771.56;4992839;28;20081;-83
2023/06/22 10:25:42;;;;;;;7.30;6.68;;;;;;;21.22;71.98;101773.50;4969244;28;20081;-83
2023/06/22 10:28:07;;;;;;;9.57;8.15;;;;;;;21.19;72.36;101768.41;4986880;28;20069;-83
2023/06/22 10:30:32;;;;;;;8.95;7.13;;;;;;;21.17;72.37;101764.13;4994442;28;20428;-83
2023/06/22 10:32:58;;;;;;;12.02;7.53;;;;;;;21.16;72.09;101767.78;4988977;28;20041;-83
2023/06/22 10:35:23;;;;;;;7.07;6.05;;;;;;;21.16;72.44;101765.09;4987485;28;20045;-83
2023/06/22 10:37:49;;;;;;;11.73;6.93;;;;;;;21.14;71.16;101775.88;4987851;28;20034;-83
2023/06/22 10:40:16;;;;;;;8.70;6.85;;;;;;;21.14;71.48;101765.22;4988920;28;20034;-83
2023/06/22 10:42:42;;;;;;;11.65;8.40;;;;;;;21.14;70.99;101770.53;4991541;28;20048;-83
2023/06/22 10:45:08;;;;;;;8.40;7.38;;;;;;;21.15;71.53;101771.38;4990993;28;20065;-83
2023/06/22 10:47:34;;;;;;;9.23;7.35;;;;;;;21.16;71.05;101767.78;4989713;28;20038;-83
2023/06/22 10:49:59;;;;;;;9.07;8.27;;;;;;;21.18;71.52;101776.50;4989481;28;20080;-83
2023/06/22 10:52:25;;;;;;;10.73;9.27;;;;;;;21.21;70.91;101778.91;4973373;28;20049;-83
2023/06/22 10:54:50;;;;;;;9.27;8.38;;;;;;;21.24;70.32;101776.91;4990645;28;20044;-83
2023/06/22 10:57:15;;;;;;;10.30;9.30;;;;;;;21.24;71.31;101768.91;4991137;28;20253;-83
2023/06/22 10:59:41;;;;;;;12.02;8.80;;;;;;;21.25;70.99;101775.94;4990669;28;20072;-83
2023/06/22 11:02:06;;;;;;;10.32;9.32;;;;;;;21.28;71.64;101774.88;4973594;28;20026;-83
2023/06/22 11:04:32;;;;;;;9.50;8.25;;;;;;;21.29;72.06;101768.59;4971556;28;20066;-83
2023/06/22 11:06:57;;;;;;;11.65;9.13;;;;;;;21.33;72.06;101777.22;4989943;28;20045;-83
2023/06/22 11:09:23;;;;;;;11.13;9.50;;;;;;;21.35;71.46;101776.13;4993508;28;20026;-83
2023/06/22 11:11:50;;;;;;;13.43;7.95;;;;;;;21.38;69.81;101781.25;4990638;28;20041;-83
2023/06/22 11:14:15;;;;;;;11.52;8.52;;;;;;;21.39;68.75;101777.63;4987284;28;20038;-83
2023/06/22 11:16:41;;;;;;;8.32;7.40;;;;;;;21.40;68.94;101776.66;4990755;28;20040;-83